Time;durP1;ratioP1;P1;durP2;ratioP2;P2;SDS_P1;SDS_P2;PMS_P1;PMS_P2;Temp;Humidity;BMP_temperature;BMP_pressure;BME280_temperature;BME280_humidity;BME280_pressure;Samples;Min_cycle;Max_cycle;Signal;HPM_P1;HPM_P2
2023/01/03 00:01:47;;;;;;;1.45;1.20;;;;;;;8.18;100.00;99653.22;4169160;28;20254;-50
2023/01/03 00:03:51;;;;;;;1.40;1.30;;;;;;;8.12;100.00;99654.03;4169906;28;20208;-50
2023/01/03 00:05:52;;;;;;;1.95;1.42;;;;;;;8.10;100.00;99650.69;4186635;28;20687;-52
2023/01/03 00:07:55;;;;;;;0.93;0.93;;;;;;;8.10;100.00;99667.03;4171906;28;20295;-52
2023/01/03 00:09:56;;;;;;;2.17;1.20;;;;;;;8.03;100.00;99658.84;4167786;28;20448;-50
2023/01/03 00:14:24;;;;;;;1.08;0.95;;;;;;;8.10;100.00;99658.88;4170937;28;20204;-52
2023/01/03 00:16:26;;;;;;;1.42;1.33;;;;;;;8.15;100.00;99661.81;4174104;28;20641;-52
2023/01/03 00:18:28;;;;;;;1.10;1.00;;;;;;;8.02;100.00;99669.97;4152090;28;20549;-50
2023/01/03 00:20:29;;;;;;;1.75;1.60;;;;;;;8.09;100.00;99670.81;4171209;28;20312;-50
2023/01/03 00:22:31;;;;;;;1.30;1.20;;;;;;;8.18;100.00;99675.03;4174072;28;20684;-51
2023/01/03 00:24:33;;;;;;;1.20;1.10;;;;;;;8.11;100.00;99664.13;4173548;28;20212;-51
2023/01/03 00:26:35;;;;;;;2.20;1.50;;;;;;;8.01;100.00;99669.09;4170670;28;20207;-52
2023/01/03 00:28:37;;;;;;;1.17;1.08;;;;;;;8.03;100.00;99666.19;4172472;28;20243;-52
2023/01/03 00:30:39;;;;;;;1.88;1.40;;;;;;;7.97;100.00;99667.00;4169660;28;20319;-56
2023/01/03 00:32:41;;;;;;;1.13;1.13;;;;;;;7.96;100.00;99670.78;4169766;28;20209;-53
2023/01/03 00:34:44;;;;;;;1.00;1.00;;;;;;;7.98;100.00;99655.06;4157184;28;20271;-51
2023/01/03 00:36:46;;;;;;;1.10;1.10;;;;;;;7.98;100.00;99657.78;4187380;28;20257;-51
2023/01/03 00:38:47;;;;;;;1.00;1.00;;;;;;;8.00;100.00;99652.94;4168292;28;20291;-51
2023/01/03 00:40:49;;;;;;;1.00;0.98;;;;;;;8.06;100.00;99655.72;4168856;28;20289;-51
2023/01/03 00:45:11;;;;;;;1.15;1.15;;;;;;;8.16;100.00;99656.13;4169967;28;20304;-51
2023/01/03 00:47:20;;;;;;;1.23;1.23;;;;;;;8.07;100.00;99661.97;4168591;28;20203;-50
2023/01/03 00:49:22;;;;;;;0.95;0.95;;;;;;;8.14;100.00;99668.28;4184474;28;20228;-52
2023/01/03 00:51:27;;;;;;;1.95;1.85;;;;;;;8.22;100.00;99666.25;4169629;28;20283;-51
2023/01/03 00:53:29;;;;;;;0.90;0.85;;;;;;;8.16;100.00;99666.22;4172418;28;20208;-52
2023/01/03 00:55:33;;;;;;;1.10;0.95;;;;;;;8.08;100.00;99667.25;4167668;28;20239;-51
2023/01/03 00:57:35;;;;;;;1.27;1.20;;;;;;;8.07;100.00;99661.97;4169381;28;20247;-51
2023/01/03 00:59:37;;;;;;;1.40;1.30;;;;;;;8.06;100.00;99660.31;4168710;28;20307;-52
2023/01/03 01:01:48;;;;;;;1.30;1.08;;;;;;;8.07;100.00;99659.25;4168921;28;20219;-52
2023/01/03 01:03:58;;;;;;;1.10;1.00;;;;;;;8.01;100.00;99662.84;4152641;28;20204;-51
2023/01/03 01:06:09;;;;;;;1.30;1.20;;;;;;;8.01;100.00;99663.66;4171263;28;20213;-51
2023/01/03 01:08:11;;;;;;;4.38;1.13;;;;;;;8.04;100.00;99673.31;4169925;28;20291;-54
2023/01/03 01:10:13;;;;;;;1.60;1.50;;;;;;;8.17;100.00;99667.91;4168838;28;20702;-52
2023/01/03 01:12:15;;;;;;;1.88;1.55;;;;;;;8.10;100.00;99672.50;4169888;28;20640;-54
2023/01/03 01:14:21;;;;;;;1.08;1.00;;;;;;;8.04;100.00;99673.31;4170426;28;20270;-52
2023/01/03 01:16:25;;;;;;;1.98;1.00;;;;;;;8.22;100.00;99676.34;4169818;28;20208;-51
2023/01/03 01:18:27;;;;;;;1.42;1.33;;;;;;;8.11;100.00;99674.16;4171397;28;20577;-52
2023/01/03 01:20:29;;;;;;;1.23;1.20;;;;;;;8.15;100.00;99678.19;4171930;28;20219;-52
2023/01/03 01:22:32;;;;;;;0.90;0.90;;;;;;;8.02;100.00;99669.97;4172795;28;20721;-51
2023/01/03 01:24:34;;;;;;;1.55;1.23;;;;;;;8.15;100.00;99670.81;4174188;28;20208;-51
2023/01/03 01:26:36;;;;;;;1.17;1.08;;;;;;;8.21;100.00;99669.22;4174253;28;20679;-52
2023/01/03 01:28:38;;;;;;;1.10;1.10;;;;;;;8.14;100.00;99669.16;4185695;28;20636;-54
2023/01/03 01:30:40;;;;;;;1.60;1.50;;;;;;;7.99;100.00;99673.94;4169182;28;20245;-53
2023/01/03 01:32:42;;;;;;;1.75;1.65;;;;;;;7.97;100.00;99677.91;4171403;28;20208;-52
2023/01/03 01:34:44;;;;;;;1.05;1.05;;;;;;;8.05;100.00;99684.03;4168493;28;20295;-53
2023/01/03 01:36:46;;;;;;;1.73;1.63;;;;;;;7.97;100.00;99688.81;4170178;28;20222;-53
2023/01/03 01:38:53;;;;;;;1.48;1.38;;;;;;;7.90;100.00;99682.50;4171733;28;20220;-53
2023/01/03 01:40:55;;;;;;;1.75;1.63;;;;;;;7.92;100.00;99692.16;4167767;28;20293;-51
2023/01/03 01:45:24;;;;;;;1.77;1.67;;;;;;;8.02;100.00;99694.50;4168118;28;20208;-50
2023/01/03 01:47:28;;;;;;;1.35;1.35;;;;;;;8.05;100.00;99702.25;4168596;28;20331;-52
2023/01/03 01:49:30;;;;;;;1.38;1.27;;;;;;;8.13;100.00;99710.22;4184156;28;20250;-51
2023/01/03 01:51:34;;;;;;;1.80;1.42;;;;;;;8.02;100.00;99708.94;4168693;28;20269;-50
2023/01/03 01:53:37;;;;;;;1.45;1.35;;;;;;;8.11;100.00;99712.34;4164331;28;20228;-51
2023/01/03 01:55:55;;;;;;;1.27;1.27;;;;;;;8.16;100.00;99723.47;4171861;28;20238;-52
2023/01/03 01:57:57;;;;;;;1.13;1.13;;;;;;;8.19;100.00;99714.88;4167007;28;20243;-51
2023/01/03 02:00:02;;;;;;;1.50;1.40;;;;;;;8.20;100.00;99722.88;4165142;28;20311;-52
2023/01/03 02:02:04;;;;;;;1.60;1.50;;;;;;;8.13;100.00;99721.13;4182106;28;20235;-51
2023/01/03 02:04:11;;;;;;;2.25;1.38;;;;;;;8.10;100.00;99722.38;4170013;28;20262;-51
2023/01/03 02:06:14;;;;;;;1.15;1.15;;;;;;;8.15;100.00;99719.88;4172134;28;20226;-51
2023/01/03 02:08:19;;;;;;;1.48;1.38;;;;;;;8.13;100.00;99721.13;4169779;28;20231;-51
2023/01/03 02:10:43;;;;;;;1.20;1.08;;;;;;;8.13;100.00;99721.13;4172502;28;20687;-51
2023/01/03 02:13:06;;;;;;;2.05;1.90;;;;;;;8.05;100.00;99715.88;4169687;28;22260;-52
2023/01/03 02:15:23;;;;;;;1.30;1.20;;;;;;;8.12;100.00;99719.47;4169157;28;20301;-54
2023/01/03 02:17:56;;;;;;;2.10;1.60;;;;;;;8.06;100.00;99725.72;4170486;28;20211;-52
2023/01/03 02:20:30;;;;;;;2.03;1.60;;;;;;;8.11;100.00;99718.63;4164835;28;20224;-51
2023/01/03 02:22:50;;;;;;;2.20;1.55;;;;;;;8.05;100.00;99718.59;4184417;28;20214;-51
2023/01/03 02:25:42;;;;;;;2.00;1.90;;;;;;;8.09;100.00;99714.44;4185027;28;20234;-51
2023/01/03 02:27:47;;;;;;;1.23;1.20;;;;;;;8.09;100.00;99719.88;4164600;28;20283;-51
2023/01/03 02:30:07;;;;;;;2.05;1.95;;;;;;;8.10;100.00;99719.66;4169755;28;20653;-51
2023/01/03 02:33:05;;;;;;;4.03;1.83;;;;;;;8.12;100.00;99714.00;4168103;28;20204;-52
2023/01/03 02:35:25;;;;;;;1.90;1.63;;;;;;;8.17;100.00;99716.97;4110614;28;20727;-53
2023/01/03 02:37:38;;;;;;;5.10;2.20;;;;;;;8.10;100.00;99716.09;4126075;28;20296;-52
2023/01/03 02:39:52;;;;;;;3.53;1.50;;;;;;;8.14;100.00;99715.50;4142648;28;20234;-51
2023/01/03 02:44:32;;;;;;;3.72;1.92;;;;;;;8.15;100.00;99721.78;4169901;28;20291;-53
2023/01/03 02:46:55;;;;;;;1.60;1.50;;;;;;;8.20;100.00;99717.44;4154554;28;20287;-53
2023/01/03 02:49:03;;;;;;;2.10;2.00;;;;;;;8.21;100.00;99718.28;4171256;28;20208;-51
2023/01/03 02:51:12;;;;;;;1.83;1.70;;;;;;;8.28;100.00;99719.97;4168095;28;20326;-53
2023/01/03 02:53:29;;;;;;;1.98;1.73;;;;;;;8.13;100.00;99708.38;4174165;28;20713;-53
2023/01/03 02:55:31;;;;;;;2.13;1.92;;;;;;;8.25;100.00;99709.47;4186388;28;20298;-51
2023/01/03 02:57:41;;;;;;;1.73;1.55;;;;;;;8.23;100.00;99718.91;4169289;28;20247;-53
2023/01/03 02:59:53;;;;;;;2.35;1.63;;;;;;;8.33;100.00;99716.59;4171190;28;20258;-52
2023/01/03 03:01:55;;;;;;;1.40;1.30;;;;;;;8.22;100.00;99715.31;4171719;28;20236;-53
2023/01/03 03:03:58;;;;;;;1.77;1.67;;;;;;;8.15;100.00;99721.78;4174874;28;20208;-51
2023/01/03 03:06:30;;;;;;;1.45;1.35;;;;;;;8.12;100.00;99724.91;4173264;28;20293;-51
2023/01/03 03:08:32;;;;;;;2.47;1.77;;;;;;;8.14;100.00;99726.41;4187576;28;20681;-52
2023/01/03 03:13:14;;;;;;;1.30;1.20;;;;;;;8.15;100.00;99735.44;4172065;28;20307;-51
2023/01/03 03:15:18;;;;;;;1.63;1.50;;;;;;;8.19;100.00;99728.50;4172169;28;20197;-53
2023/01/03 03:17:23;;;;;;;1.35;1.30;;;;;;;8.20;100.00;99738.38;4170063;28;20824;-52
2023/01/03 03:26:40;;;;;;;1.55;1.45;;;;;;;8.16;100.00;99731.66;4172003;28;20295;-52
2023/01/03 03:28:44;;;;;;;2.10;1.73;;;;;;;8.17;100.00;99730.59;4172666;28;20231;-51
2023/01/03 03:30:50;;;;;;;1.35;1.25;;;;;;;8.23;100.00;99738.00;4170669;28;20305;-53
2023/01/03 03:32:54;;;;;;;3.08;1.60;;;;;;;8.23;100.00;99735.28;4172303;28;20663;-51
2023/01/03 03:34:58;;;;;;;2.25;1.48;;;;;;;8.17;100.00;99744.22;4170098;28;20655;-53
2023/01/03 03:37:03;;;;;;;1.75;1.65;;;;;;;8.19;100.00;99736.69;4185086;28;20211;-52
2023/01/03 03:44:59;;;;;;;1.30;1.20;;;;;;;8.20;100.00;99732.94;4170966;28;22475;-54
2023/01/03 03:46:39;;;;;;;1.52;1.42;;;;;;;8.13;100.00;99729.31;4170301;28;20273;-52
2023/01/03 03:51:13;;;;;;;2.80;1.85;;;;;;;8.06;100.00;99731.19;4170169;28;20224;-52
2023/01/03 03:53:17;;;;;;;3.05;2.05;;;;;;;8.06;100.00;99726.59;4175071;28;20543;-51
2023/01/03 03:55:42;;;;;;;2.05;1.95;;;;;;;8.11;100.00;99728.69;4157982;28;20232;-50
2023/01/03 03:58:00;;;;;;;1.85;1.75;;;;;;;8.17;100.00;99725.16;4171136;28;20204;-52
2023/01/03 04:00:10;;;;;;;1.50;1.40;;;;;;;8.21;100.00;99734.66;4160006;28;20236;-51
2023/01/03 04:02:12;;;;;;;1.52;1.42;;;;;;;8.19;100.00;99742.13;4173995;28;20211;-51
2023/01/03 04:04:19;;;;;;;1.98;1.48;;;;;;;8.05;100.00;99733.09;4156117;28;20943;-51
2023/01/03 04:06:29;;;;;;;3.78;1.40;;;;;;;8.11;100.00;99734.16;4170501;28;20285;-51
2023/01/03 04:08:31;;;;;;;2.03;1.33;;;;;;;8.09;100.00;99736.25;4170044;28;20208;-53
2023/01/03 04:10:33;;;;;;;1.02;1.02;;;;;;;8.05;100.00;99729.50;4172052;28;20228;-52
2023/01/03 04:12:38;;;;;;;2.15;1.33;;;;;;;8.00;100.00;99737.44;4170506;28;20219;-52
2023/01/03 04:14:40;;;;;;;1.90;1.80;;;;;;;7.99;100.00;99730.31;4156077;28;20737;-53
2023/01/03 04:16:42;;;;;;;1.40;1.30;;;;;;;8.02;100.00;99736.19;4152284;28;20649;-52
2023/01/03 04:18:44;;;;;;;1.10;1.10;;;;;;;8.15;100.00;99740.88;4171594;28;20243;-51
2023/01/03 04:20:45;;;;;;;1.52;1.42;;;;;;;8.02;100.00;99746.28;4168564;28;20323;-53
2023/01/03 04:22:47;;;;;;;1.60;1.50;;;;;;;8.14;100.00;99747.34;4157104;28;20236;-52
2023/01/03 04:24:49;;;;;;;1.75;1.65;;;;;;;8.08;100.00;99748.19;4172884;28;20749;-51
2023/01/03 04:26:51;;;;;;;2.72;2.53;;;;;;;8.08;100.00;99748.19;4156785;28;20299;-51
2023/01/03 04:28:52;;;;;;;2.45;2.30;;;;;;;8.08;100.00;99745.47;4170794;28;20751;-51
2023/01/03 04:30:54;;;;;;;1.60;1.50;;;;;;;8.13;100.00;99743.81;4171265;28;20677;-52
2023/01/03 04:32:56;;;;;;;1.73;1.63;;;;;;;8.22;100.00;99748.03;4170013;28;20244;-50
2023/01/03 04:34:57;;;;;;;13.80;2.08;;;;;;;8.12;100.00;99746.72;4171955;28;20303;-51
2023/01/03 04:36:59;;;;;;;2.13;2.03;;;;;;;8.11;100.00;99745.03;4173640;28;20407;-52
2023/01/03 04:39:01;;;;;;;3.90;1.60;;;;;;;8.06;100.00;99747.53;4154171;28;20232;-52
2023/01/03 04:41:04;;;;;;;3.35;2.10;;;;;;;8.15;100.00;99752.59;4170409;28;20239;-51
2023/01/03 04:45:26;;;;;;;2.47;2.35;;;;;;;8.12;100.00;99744.84;4169512;28;20245;-54
2023/01/03 04:47:28;;;;;;;2.58;2.15;;;;;;;8.06;100.00;99737.50;4172439;28;20736;-52
2023/01/03 04:49:30;;;;;;;2.15;1.95;;;;;;;8.08;100.00;99745.47;4171677;28;20256;-50
2023/01/03 04:51:32;;;;;;;2.08;1.92;;;;;;;8.15;100.00;99738.16;4167315;28;20313;-53
2023/01/03 04:53:33;;;;;;;2.35;2.25;;;;;;;8.13;100.00;99734.78;4171173;28;20289;-51
2023/01/03 04:55:35;;;;;;;2.38;2.17;;;;;;;7.94;100.00;99739.09;4183667;28;20211;-51
2023/01/03 04:57:37;;;;;;;2.03;1.92;;;;;;;8.04;100.00;99749.63;4164746;28;20725;-53
2023/01/03 04:59:39;;;;;;;2.25;2.10;;;;;;;7.95;100.00;99751.69;4171741;28;20232;-51
2023/01/03 05:01:50;;;;;;;2.38;2.17;;;;;;;8.00;100.00;99751.06;4168000;28;20658;-53
2023/01/03 05:04:00;;;;;;;2.10;2.00;;;;;;;7.97;100.00;99748.78;4167083;28;20295;-51
2023/01/03 05:06:06;;;;;;;2.00;1.88;;;;;;;8.00;100.00;99759.25;4167687;28;20243;-51
2023/01/03 05:08:10;;;;;;;1.92;1.83;;;;;;;7.94;100.00;99765.50;4172514;28;20208;-53
2023/01/03 05:10:12;;;;;;;2.60;2.28;;;;;;;7.83;100.00;99766.09;4181967;28;20244;-52
2023/01/03 05:12:14;;;;;;;1.85;1.75;;;;;;;8.04;100.00;99755.09;4169911;28;20301;-52
2023/01/03 05:14:16;;;;;;;2.38;2.28;;;;;;;7.88;100.00;99760.91;4168747;28;20208;-52
2023/01/03 05:16:17;;;;;;;2.00;1.73;;;;;;;7.94;100.00;99760.91;4168453;28;20319;-52
2023/01/03 05:18:19;;;;;;;2.42;1.80;;;;;;;7.88;100.00;99771.81;4170798;28;20204;-52
2023/01/03 05:27:22;;;;;;;1.33;1.27;;;;;;;8.03;100.00;99777.94;4169636;28;20228;-51
2023/01/03 05:29:25;;;;;;;1.70;1.60;;;;;;;7.94;100.00;99777.28;4167252;28;20228;-51
2023/01/03 05:31:26;;;;;;;1.80;1.70;;;;;;;7.96;100.00;99779.81;4167253;28;20354;-52
2023/01/03 05:33:28;;;;;;;2.45;1.17;;;;;;;7.92;100.00;99778.50;4150923;28;20271;-51
2023/01/03 05:35:30;;;;;;;2.03;1.88;;;;;;;7.97;100.00;99765.13;4183619;28;20211;-52
2023/01/03 05:37:31;;;;;;;1.45;1.38;;;;;;;7.99;100.00;99771.19;4184506;28;20213;-51
2023/01/03 05:39:33;;;;;;;1.58;1.48;;;;;;;8.01;100.00;99777.31;4167894;28;20255;-52
2023/01/03 05:43:55;;;;;;;2.08;1.90;;;;;;;7.92;100.00;99781.22;4168034;28;20662;-53
2023/01/03 05:45:57;;;;;;;1.48;1.38;;;;;;;7.93;100.00;99775.59;4170440;28;20302;-52
2023/01/03 05:47:59;;;;;;;1.52;1.35;;;;;;;7.90;100.00;99777.88;4169250;28;20212;-51
2023/01/03 05:50:01;;;;;;;1.70;1.60;;;;;;;8.01;100.00;99771.88;4183091;28;20642;-53
2023/01/03 05:52:03;;;;;;;1.88;1.67;;;;;;;7.95;100.00;99778.13;4168652;28;20236;-53
2023/01/03 05:54:05;;;;;;;1.75;1.65;;;;;;;7.85;100.00;99772.19;4183660;28;20202;-51
2023/01/03 05:56:06;;;;;;;1.33;1.23;;;;;;;7.97;100.00;99765.13;4167386;28;20306;-53
2023/01/03 05:58:10;;;;;;;1.67;1.58;;;;;;;7.95;100.00;99780.84;4181604;28;20234;-51
2023/01/03 06:00:15;;;;;;;2.17;1.65;;;;;;;7.90;100.00;99780.59;4172964;28;20219;-52
2023/01/03 06:02:16;;;;;;;2.67;1.75;;;;;;;7.94;100.00;99779.13;4166973;28;20213;-51
2023/01/03 06:04:18;;;;;;;2.42;2.13;;;;;;;7.90;100.00;99786.06;4163680;28;20234;-53
2023/01/03 06:06:20;;;;;;;2.63;1.60;;;;;;;7.85;100.00;99789.38;4167257;28;20211;-52
2023/01/03 06:08:22;;;;;;;2.65;2.45;;;;;;;7.84;100.00;99792.31;4166672;28;20662;-51
2023/01/03 06:10:24;;;;;;;2.78;1.75;;;;;;;7.83;100.00;99785.19;4165247;28;20260;-52
2023/01/03 06:12:26;;;;;;;2.25;2.15;;;;;;;7.90;100.00;99786.06;4169344;28;20220;-53
2023/01/03 06:14:28;;;;;;;1.60;1.50;;;;;;;7.92;100.00;99784.81;4168147;28;20777;-51
2023/01/03 06:18:50;;;;;;;1.73;1.63;;;;;;;7.78;100.00;99788.50;4168281;28;20782;-53
2023/01/03 06:20:52;;;;;;;1.92;1.80;;;;;;;7.86;100.00;99798.38;4171618;28;20224;-51
2023/01/03 06:22:55;;;;;;;3.05;1.20;;;;;;;7.85;100.00;99793.97;4169156;28;20250;-51
2023/01/03 06:24:56;;;;;;;1.73;1.63;;;;;;;7.81;100.00;99798.19;4168668;28;20208;-51
2023/01/03 06:26:58;;;;;;;1.88;1.77;;;;;;;7.75;100.00;99798.97;4170214;28;20243;-52
2023/01/03 06:29:00;;;;;;;1.55;1.45;;;;;;;7.69;100.00;99797.06;4172699;28;20215;-53
2023/01/03 06:31:03;;;;;;;2.00;1.90;;;;;;;7.63;100.00;99795.94;4168230;28;20224;-50
2023/01/03 06:33:12;;;;;;;2.08;1.88;;;;;;;7.56;100.00;99794.25;4173742;28;20328;-51
2023/01/03 06:35:14;;;;;;;1.80;1.70;;;;;;;7.67;100.00;99793.66;4169140;28;20319;-53
2023/01/03 06:37:30;;;;;;;3.13;2.00;;;;;;;7.55;100.00;99798.84;4170095;28;20204;-51
2023/01/03 06:39:34;;;;;;;1.67;1.55;;;;;;;7.60;100.00;99801.81;4185055;28;20241;-51
2023/01/03 06:41:36;;;;;;;3.70;2.10;;;;;;;7.72;100.00;99799.34;4157357;28;20653;-51
2023/01/03 06:43:39;;;;;;;2.00;1.90;;;;;;;7.68;100.00;99798.91;4174144;28;20596;-51
2023/01/03 06:55:09;;;;;;;1.73;1.63;;;;;;;7.69;100.00;99794.31;4171119;28;20214;-53
2023/01/03 06:57:11;;;;;;;1.73;1.63;;;;;;;7.72;100.00;99807.53;4172471;28;20216;-53
2023/01/03 06:59:27;;;;;;;3.15;2.00;;;;;;;7.79;100.00;99800.25;4171689;28;20281;-51
2023/01/03 07:01:29;;;;;;;2.30;2.15;;;;;;;7.78;100.00;99809.47;4172802;28;20595;-50
2023/01/03 07:03:32;;;;;;;2.25;2.05;;;;;;;7.78;100.00;99798.56;4168359;28;20841;-51
2023/01/03 07:05:34;;;;;;;1.65;1.55;;;;;;;7.76;100.00;99798.75;4168903;28;20249;-54
2023/01/03 07:07:36;;;;;;;1.77;1.67;;;;;;;7.73;100.00;99801.88;4159155;28;20288;-52
2023/01/03 07:09:38;;;;;;;1.92;1.83;;;;;;;7.69;100.00;99797.06;4173751;28;20267;-52
2023/01/03 07:11:40;;;;;;;1.85;1.73;;;;;;;7.75;100.00;99805.25;4171870;28;20232;-52
2023/01/03 07:13:57;;;;;;;2.20;2.00;;;;;;;7.73;100.00;99801.03;4167680;28;20216;-52
2023/01/03 07:15:59;;;;;;;3.65;2.25;;;;;;;7.67;100.00;99818.19;4174167;28;20203;-53
2023/01/03 07:18:01;;;;;;;1.77;1.67;;;;;;;7.66;100.00;99816.50;4171397;28;20204;-52
2023/01/03 07:20:03;;;;;;;2.60;2.40;;;;;;;7.63;100.00;99822.38;4174170;28;20267;-54
2023/01/03 07:22:05;;;;;;;2.40;2.20;;;;;;;7.70;100.00;99820.53;4181896;28;21427;-52
2023/01/03 07:24:08;;;;;;;2.33;2.13;;;;;;;7.50;100.00;99822.28;4183298;28;20652;-52
2023/01/03 07:26:10;;;;;;;1.73;1.63;;;;;;;7.62;100.00;99823.41;4168048;28;20304;-51
2023/01/03 07:28:14;;;;;;;1.83;1.73;;;;;;;7.47;100.00;99833.53;4171635;28;20204;-51
2023/01/03 07:30:23;;;;;;;2.22;2.13;;;;;;;7.49;100.00;99832.31;4187761;28;20231;-51
2023/01/03 07:32:41;;;;;;;2.80;2.60;;;;;;;7.60;100.00;99841.81;4169146;28;20293;-51
2023/01/03 07:34:54;;;;;;;2.35;2.22;;;;;;;7.40;100.00;99849.00;4159321;28;20288;-52
2023/01/03 07:37:43;;;;;;;2.60;2.40;;;;;;;7.52;100.00;99848.28;4173245;28;20215;-50
2023/01/03 07:39:58;;;;;;;2.50;2.30;;;;;;;7.50;100.00;99844.06;4167646;28;20692;-53
2023/01/03 07:44:21;;;;;;;2.80;2.60;;;;;;;7.19;100.00;99840.84;4168096;28;20204;-51
2023/01/03 07:46:24;;;;;;;3.17;2.90;;;;;;;7.37;100.00;99838.50;4169900;28;20200;-51
2023/01/03 07:48:26;;;;;;;5.65;2.60;;;;;;;7.37;100.00;99843.94;4188690;28;20889;-51
2023/01/03 07:50:29;;;;;;;3.63;3.33;;;;;;;7.20;100.00;99843.38;4170604;28;20319;-51
2023/01/03 07:52:40;;;;;;;2.92;2.72;;;;;;;7.24;100.00;99849.28;4158437;28;20220;-51
2023/01/03 07:54:45;;;;;;;3.35;2.80;;;;;;;7.24;100.00;99854.72;4174196;28;20208;-51
2023/01/03 07:56:47;;;;;;;4.20;3.63;;;;;;;7.34;100.00;99856.06;4158071;28;20631;-52
2023/01/03 07:58:53;;;;;;;2.75;2.55;;;;;;;7.26;100.00;99858.09;4171627;28;20655;-51
2023/01/03 08:01:13;;;;;;;3.30;3.00;;;;;;;7.20;100.00;99858.88;4171013;28;20266;-50
2023/01/03 08:03:22;;;;;;;3.08;2.78;;;;;;;7.23;100.00;99863.94;4172770;28;20250;-51
2023/01/03 08:05:24;;;;;;;2.40;2.20;;;;;;;7.20;100.00;99865.16;4159679;28;20710;-50
2023/01/03 08:07:28;;;;;;;3.05;2.75;;;;;;;7.31;100.00;99861.06;4175548;28;20643;-53
2023/01/03 08:14:16;;;;;;;3.65;3.35;;;;;;;7.25;100.00;99867.28;4170842;28;20205;-53
2023/01/03 08:16:26;;;;;;;2.72;2.53;;;;;;;7.29;100.00;99868.59;4172935;28;20779;-50
2023/01/03 08:18:29;;;;;;;2.42;2.22;;;;;;;7.26;100.00;99869.84;4175775;28;20212;-53
2023/01/03 08:20:31;;;;;;;3.58;2.65;;;;;;;7.27;100.00;99876.09;4187594;28;20748;-50
2023/01/03 08:22:42;;;;;;;4.30;3.53;;;;;;;7.28;100.00;99878.63;4174324;28;20342;-51
2023/01/03 08:24:44;;;;;;;3.60;3.25;;;;;;;7.29;100.00;99869.44;4173357;28;20208;-51
2023/01/03 08:26:47;;;;;;;4.55;3.33;;;;;;;7.25;100.00;99872.75;4173209;28;20208;-53
2023/01/03 08:28:49;;;;;;;3.00;2.80;;;;;;;7.19;100.00;99868.09;4171881;28;20654;-52
2023/01/03 08:31:06;;;;;;;2.90;2.45;;;;;;;7.32;100.00;99873.66;4170873;28;20248;-53
2023/01/03 08:33:11;;;;;;;2.40;2.22;;;;;;;7.45;100.00;99879.19;4172301;28;20269;-52
2023/01/03 08:35:14;;;;;;;3.10;2.75;;;;;;;7.36;100.00;99875.78;4176692;28;20613;-53
2023/01/03 08:37:23;;;;;;;3.22;2.83;;;;;;;7.35;100.00;99879.53;4168418;28;20205;-52
2023/01/03 08:39:28;;;;;;;3.08;2.10;;;;;;;7.38;100.00;99872.88;4186864;28;20655;-52
2023/01/03 08:41:33;;;;;;;6.47;2.55;;;;;;;7.39;100.00;99880.00;4153057;28;21668;-51
2023/01/03 08:43:38;;;;;;;2.63;2.42;;;;;;;7.46;100.00;99879.03;4168665;28;22418;-51
2023/01/03 08:45:40;;;;;;;5.13;3.42;;;;;;;7.46;100.00;99878.16;4171830;28;20211;-50
2023/01/03 08:47:46;;;;;;;2.40;2.20;;;;;;;7.55;100.00;99886.00;4171778;28;20222;-51
2023/01/03 08:49:48;;;;;;;3.53;2.25;;;;;;;7.49;100.00;99888.69;4170593;28;20270;-50
2023/01/03 08:51:50;;;;;;;3.15;2.17;;;;;;;7.65;100.00;99888.38;4171632;28;20238;-51
2023/01/03 08:53:53;;;;;;;3.15;2.47;;;;;;;7.64;100.00;99894.88;4174626;28;20220;-53
2023/01/03 08:55:55;;;;;;;1.77;1.67;;;;;;;7.68;100.00;99901.63;4172823;28;20204;-52
2023/01/03 08:57:58;;;;;;;2.15;2.05;;;;;;;7.64;100.00;99900.31;4167839;28;20571;-50
2023/01/03 09:00:00;;;;;;;4.40;1.65;;;;;;;7.77;100.00;99908.59;4169200;28;20297;-52
2023/01/03 09:02:03;;;;;;;2.33;2.22;;;;;;;7.72;100.00;99913.78;4170157;28;20215;-50
2023/01/03 09:04:05;;;;;;;2.78;2.58;;;;;;;7.77;100.00;99916.78;4167435;28;20901;-51
2023/01/03 09:06:08;;;;;;;1.92;1.83;;;;;;;7.63;100.00;99914.97;4154523;28;20332;-51
2023/01/03 09:08:10;;;;;;;2.38;2.17;;;;;;;7.57;100.00;99916.59;4168703;28;20212;-50
2023/01/03 09:10:11;;;;;;;1.52;1.30;;;;;;;7.63;100.00;99914.97;4165669;28;20232;-52
2023/01/03 09:12:13;;;;;;;3.83;2.00;;;;;;;7.66;100.00;99920.88;4167395;28;20282;-52
2023/01/03 09:14:15;;;;;;;2.38;2.17;;;;;;;7.70;100.00;99922.16;4168405;28;20209;-51
2023/01/03 09:16:17;;;;;;;3.72;1.80;;;;;;;7.67;100.00;99922.56;4168585;28;20417;-52
2023/01/03 09:18:18;;;;;;;2.30;2.20;;;;;;;7.80;100.00;99916.34;4168398;28;21865;-52
2023/01/03 09:20:20;;;;;;;2.50;2.00;;;;;;;7.75;100.00;99924.31;4168988;28;20320;-52
2023/01/03 09:22:22;;;;;;;1.95;1.85;;;;;;;7.74;100.00;99925.31;4169237;28;20287;-52
2023/01/03 09:24:23;;;;;;;3.22;2.67;;;;;;;7.73;100.00;99926.38;4169887;28;20820;-52
2023/01/03 09:26:25;;;;;;;2.22;2.00;;;;;;;7.80;100.00;99921.81;4165883;28;20262;-53
2023/01/03 09:28:29;;;;;;;8.80;2.03;;;;;;;7.77;100.00;99922.22;4166338;28;20709;-52
2023/01/03 09:30:30;;;;;;;2.08;1.80;;;;;;;7.84;100.00;99925.84;4172499;28;20229;-51
2023/01/03 09:32:32;;;;;;;1.92;1.73;;;;;;;7.87;100.00;99923.56;4182548;28;20223;-52
2023/01/03 09:34:34;;;;;;;2.25;2.13;;;;;;;7.93;100.00;99922.75;4169880;28;20208;-52
2023/01/03 09:36:37;;;;;;;1.73;1.63;;;;;;;7.95;100.00;99925.31;4168530;28;20231;-52
2023/01/03 09:38:39;;;;;;;1.38;1.27;;;;;;;7.92;100.00;99926.53;4168973;28;20252;-53
2023/01/03 09:40:44;;;;;;;1.88;1.77;;;;;;;7.98;100.00;99922.16;4164535;28;21417;-51
2023/01/03 09:45:17;;;;;;;1.75;1.65;;;;;;;7.99;100.00;99929.28;4165134;28;20682;-52
2023/01/03 09:47:21;;;;;;;2.20;2.10;;;;;;;8.01;100.00;99921.78;4165463;28;20214;-51
2023/01/03 09:49:23;;;;;;;3.00;2.80;;;;;;;8.13;100.00;99920.16;4152469;28;20201;-51
2023/01/03 10:04:25;;;;;;;3.60;2.80;;;;;;;7.97;100.00;99923.22;4167816;28;20204;-50
2023/01/03 10:06:38;;;;;;;2.50;2.30;;;;;;;7.89;100.00;99920.63;4168877;28;20509;-52
2023/01/03 10:09:05;;;;;;;3.50;3.22;;;;;;;7.88;100.00;99929.84;4169978;28;20231;-52
2023/01/03 10:11:31;;;;;;;3.58;3.25;;;;;;;7.95;100.00;99930.75;4183433;28;20290;-51
2023/01/03 10:13:40;;;;;;;2.55;2.35;;;;;;;7.98;100.00;99925.75;4168951;28;20220;-52
2023/01/03 10:15:48;;;;;;;2.15;2.05;;;;;;;8.03;100.00;99927.88;4169453;28;20200;-53
2023/01/03 10:17:59;;;;;;;3.45;2.50;;;;;;;8.02;100.00;99921.56;4160569;28;20226;-51
2023/01/03 10:20:13;;;;;;;2.78;2.58;;;;;;;8.05;100.00;99931.22;4170055;28;20314;-51
2023/01/03 10:22:22;;;;;;;2.60;2.40;;;;;;;8.14;100.00;99924.56;4167957;28;20196;-51
2023/01/03 10:24:31;;;;;;;2.58;2.38;;;;;;;8.04;100.00;99929.53;4168001;28;20224;-50
2023/01/03 10:26:34;;;;;;;2.58;2.38;;;;;;;8.01;100.00;99927.22;4168385;28;20665;-51
2023/01/03 10:28:42;;;;;;;2.80;2.13;;;;;;;8.15;100.00;99926.28;4169708;28;20215;-50
2023/01/03 10:30:46;;;;;;;2.20;2.10;;;;;;;8.06;100.00;99927.44;4148754;28;20326;-53
2023/01/03 10:32:57;;;;;;;3.05;2.80;;;;;;;8.18;100.00;99925.84;4160104;28;20334;-53
2023/01/03 10:35:24;;;;;;;4.05;3.65;;;;;;;8.11;100.00;99931.28;4162434;28;20299;-53
2023/01/03 10:37:28;;;;;;;5.10;2.78;;;;;;;8.14;100.00;99913.66;4163843;28;21164;-52
2023/01/03 10:39:30;;;;;;;4.05;3.65;;;;;;;8.07;100.00;99920.94;4165529;28;20922;-53
2023/01/03 10:41:42;;;;;;;3.15;2.85;;;;;;;8.13;100.00;99921.00;4165080;28;20204;-51
2023/01/03 10:43:44;;;;;;;2.97;2.78;;;;;;;8.10;100.00;99917.84;4165856;28;20226;-52
2023/01/03 10:45:55;;;;;;;3.75;3.13;;;;;;;8.15;100.00;99920.81;4147723;28;21573;-51
2023/01/03 10:47:58;;;;;;;4.10;3.70;;;;;;;8.16;100.00;99925.22;4166500;28;20226;-52
2023/01/03 10:50:03;;;;;;;3.25;2.95;;;;;;;8.16;100.00;99912.41;4163832;28;20234;-52
2023/01/03 10:52:16;;;;;;;3.20;3.00;;;;;;;8.23;100.00;99909.78;4163160;28;20200;-51
2023/01/03 10:54:17;;;;;;;3.75;3.33;;;;;;;8.32;100.00;99901.22;4158507;28;20224;-51
2023/01/03 10:56:20;;;;;;;2.95;2.75;;;;;;;8.38;100.00;99899.56;4166678;28;20212;-51
2023/01/03 10:58:25;;;;;;;3.53;2.90;;;;;;;8.23;100.00;99901.59;4164466;28;20810;-54
2023/01/03 11:00:37;;;;;;;3.20;2.90;;;;;;;8.26;100.00;99890.28;4158961;28;20232;-51
2023/01/03 11:02:43;;;;;;;3.20;2.92;;;;;;;8.23;100.00;99893.41;4166617;28;20554;-53
2023/01/03 11:04:47;;;;;;;3.38;3.13;;;;;;;8.39;100.00;99895.78;4163593;28;20219;-53
2023/01/03 11:07:10;;;;;;;4.00;3.70;;;;;;;8.51;100.00;99896.91;4167375;28;20219;-52